createdAt,value
2019-02-27T00:00:22.659Z,6.81
2019-02-27T00:01:28.162Z,6.87
2019-02-27T00:02:33.671Z,6.71
2019-02-27T00:03:39.181Z,6.69
2019-02-27T00:04:44.687Z,6.62
2019-02-27T00:05:50.195Z,6.59
2019-02-27T00:06:55.702Z,6.59
2019-02-27T00:08:01.212Z,6.63
2019-02-27T00:09:06.718Z,6.59
2019-02-27T00:10:12.234Z,6.66
2019-02-27T00:11:17.735Z,6.59
2019-02-27T00:12:23.243Z,6.59
2019-02-27T00:13:28.750Z,6.48
2019-02-27T00:14:34.258Z,6.58
2019-02-27T00:15:39.771Z,6.53
2019-02-27T00:16:45.363Z,6.59
2019-02-27T00:17:51.468Z,6.61
2019-02-27T00:18:58.614Z,6.58
2019-02-27T00:20:04.133Z,6.56
2019-02-27T00:21:10.250Z,6.59
2019-02-27T00:22:14.936Z,6.50
2019-02-27T00:23:18.322Z,6.59
2019-02-27T00:24:23.830Z,6.63
2019-02-27T00:25:29.335Z,6.62
2019-02-27T00:26:34.843Z,6.62
2019-02-27T00:27:40.349Z,6.62
2019-02-27T00:28:45.861Z,6.53
2019-02-27T00:29:51.368Z,6.51
2019-02-27T00:30:56.874Z,6.50
2019-02-27T00:32:02.381Z,6.51
2019-02-27T00:33:07.890Z,6.43
2019-02-27T00:34:13.394Z,6.40
2019-02-27T00:35:18.907Z,6.46
2019-02-27T00:36:24.413Z,6.38
2019-02-27T00:37:29.920Z,6.35
2019-02-27T00:38:35.426Z,6.32
2019-02-27T00:39:40.936Z,6.32
2019-02-27T00:40:46.443Z,6.40
2019-02-27T00:41:51.947Z,6.41
2019-02-27T00:42:57.454Z,6.41
2019-02-27T00:44:02.973Z,6.35
2019-02-27T00:45:08.476Z,6.50
2019-02-27T00:46:14.056Z,6.38
2019-02-27T00:47:20.208Z,6.30
2019-02-27T00:48:26.275Z,6.35
2019-02-27T00:49:32.328Z,6.38
2019-02-27T00:50:38.976Z,6.35
2019-02-27T00:51:44.694Z,6.38
2019-02-27T00:52:50.846Z,6.36
2019-02-27T00:53:52.533Z,6.33
2019-02-27T00:54:58.050Z,6.30
2019-02-27T00:56:03.555Z,6.35
2019-02-27T00:57:09.066Z,6.21
2019-02-27T00:58:14.567Z,6.29
2019-02-27T00:59:20.069Z,6.21
2019-02-27T01:00:25.580Z,6.22
2019-02-27T01:01:31.090Z,6.26
2019-02-27T01:02:36.597Z,6.25
2019-02-27T01:03:42.108Z,6.22
2019-02-27T01:04:47.607Z,6.19
2019-02-27T01:05:53.114Z,6.16
2019-02-27T01:06:58.631Z,6.22
2019-02-27T01:08:04.135Z,6.21
2019-02-27T01:09:09.642Z,6.11
2019-02-27T01:10:15.145Z,6.16
2019-02-27T01:11:20.655Z,6.25
2019-02-27T01:12:26.159Z,6.19
2019-02-27T01:13:31.872Z,6.11
2019-02-27T01:14:37.693Z,6.18
2019-02-27T01:15:44.692Z,6.09
2019-02-27T01:16:50.257Z,6.01
2019-02-27T01:17:55.004Z,6.03
2019-02-27T01:18:59.204Z,6.13
2019-02-27T01:20:04.705Z,6.10
2019-02-27T01:21:10.219Z,6.09
2019-02-27T01:22:15.736Z,6.04
2019-02-27T01:23:21.231Z,6.04
2019-02-27T01:24:26.744Z,6.04
2019-02-27T01:25:32.253Z,6.03
2019-02-27T01:26:37.757Z,5.91
2019-02-27T01:27:43.280Z,5.96
2019-02-27T01:28:48.771Z,5.93
2019-02-27T01:29:54.283Z,5.78
2019-02-27T01:30:59.787Z,5.88
2019-02-27T01:32:05.294Z,5.85
2019-02-27T01:33:10.802Z,5.73
2019-02-27T01:34:16.313Z,5.83
2019-02-27T01:35:21.817Z,5.75
2019-02-27T01:36:27.320Z,5.74
2019-02-27T01:37:32.830Z,5.74
2019-02-27T01:38:38.599Z,5.74
2019-02-27T01:39:44.229Z,5.73
2019-02-27T01:40:51.668Z,5.74
2019-02-27T01:41:55.284Z,5.75
2019-02-27T01:43:00.364Z,5.70
2019-02-27T01:44:05.876Z,5.68
2019-02-27T01:45:11.379Z,5.73
2019-02-27T01:46:16.892Z,5.71
2019-02-27T01:47:22.393Z,5.71
2019-02-27T01:48:27.903Z,5.82
2019-02-27T01:49:33.420Z,5.73
2019-02-27T01:50:38.913Z,5.75
2019-02-27T01:51:44.426Z,5.74
2019-02-27T01:52:49.929Z,5.82
2019-02-27T01:53:55.436Z,5.77
2019-02-27T01:55:00.946Z,5.77
2019-02-27T01:56:06.454Z,5.73
2019-02-27T01:57:11.961Z,5.71
2019-02-27T01:58:17.469Z,5.75
2019-02-27T01:59:22.972Z,5.75
2019-02-27T02:00:28.487Z,5.74
2019-02-27T02:01:33.986Z,5.74
2019-02-27T02:02:40.503Z,5.77
2019-02-27T02:03:47.293Z,5.74
2019-02-27T02:04:53.119Z,5.71
2019-02-27T02:05:59.038Z,5.77
2019-02-27T02:07:04.057Z,5.77
2019-02-27T02:08:07.027Z,5.73
2019-02-27T02:09:12.543Z,5.68
2019-02-27T02:10:18.045Z,5.81
2019-02-27T02:11:23.545Z,5.74
2019-02-27T02:12:29.056Z,5.64
2019-02-27T02:13:34.560Z,5.63
2019-02-27T02:14:40.074Z,5.67
2019-02-27T02:15:45.581Z,5.71
2019-02-27T02:16:51.083Z,5.57
2019-02-27T02:17:56.594Z,5.67
2019-02-27T02:19:02.108Z,5.50
2019-02-27T02:20:07.604Z,5.66
2019-02-27T02:21:13.109Z,5.66
2019-02-27T02:22:18.624Z,5.59
2019-02-27T02:23:24.126Z,5.64
2019-02-27T02:24:29.636Z,5.59
2019-02-27T02:25:35.144Z,5.64
2019-02-27T02:26:40.647Z,5.67
2019-02-27T02:27:46.155Z,5.60
2019-02-27T02:28:51.662Z,5.68
2019-02-27T02:29:57.175Z,5.70
2019-02-27T02:31:05.407Z,5.67
2019-02-27T02:32:08.182Z,5.64
2019-02-27T02:33:13.694Z,5.60
2019-02-27T02:34:19.196Z,5.60
2019-02-27T02:35:24.705Z,5.64
2019-02-27T02:36:30.212Z,5.53
2019-02-27T02:37:37.751Z,5.43
2019-02-27T02:38:41.232Z,5.49
2019-02-27T02:39:46.741Z,5.55
2019-02-27T02:40:52.245Z,5.49
2019-02-27T02:41:57.751Z,5.49
2019-02-27T02:43:03.529Z,5.38
2019-02-27T02:44:08.766Z,5.27
2019-02-27T02:45:14.307Z,5.30
2019-02-27T02:46:19.779Z,5.32
2019-02-27T02:47:25.284Z,5.20
2019-02-27T02:48:31.049Z,5.22
2019-02-27T02:49:41.972Z,5.16
2019-02-27T02:50:41.799Z,5.16
2019-02-27T02:51:47.307Z,5.19
2019-02-27T02:52:52.814Z,5.20
2019-02-27T02:54:01.894Z,5.17
2019-02-27T02:55:03.830Z,5.17
2019-02-27T02:56:09.335Z,5.10
2019-02-27T02:57:14.841Z,5.13
2019-02-27T02:58:20.388Z,5.10
2019-02-27T02:59:26.055Z,5.12
2019-02-27T03:00:31.363Z,5.09
2019-02-27T03:01:36.866Z,5.07
2019-02-27T03:02:42.370Z,5.07
2019-02-27T03:03:47.881Z,5.14
2019-02-27T03:04:53.384Z,5.13
2019-02-27T03:05:59.980Z,5.16
2019-02-27T03:07:07.239Z,5.05
2019-02-27T03:08:09.909Z,5.07
2019-02-27T03:09:15.427Z,5.07
2019-02-27T03:10:20.923Z,5.07
2019-02-27T03:11:26.426Z,5.12
2019-02-27T03:12:31.929Z,5.10
2019-02-27T03:13:41.638Z,5.09
2019-02-27T03:14:42.949Z,5.10
2019-02-27T03:15:48.450Z,5.09
2019-02-27T03:16:53.956Z,5.17
2019-02-27T03:17:59.465Z,5.14
2019-02-27T03:19:06.360Z,5.13
2019-02-27T03:20:16.440Z,5.20
2019-02-27T03:21:15.986Z,5.16
2019-02-27T03:22:21.491Z,5.25
2019-02-27T03:23:27.000Z,5.13
2019-02-27T03:24:32.510Z,5.12
2019-02-27T03:25:40.848Z,5.07
2019-02-27T03:26:43.516Z,5.01
2019-02-27T03:27:49.027Z,4.98
2019-02-27T03:28:54.530Z,5.09
2019-02-27T03:30:00.037Z,5.05
2019-02-27T03:32:11.053Z,5.13
2019-02-27T03:33:22.838Z,5.05
2019-02-27T03:34:22.073Z,4.96
2019-02-27T03:35:29.198Z,4.95
2019-02-27T03:36:36.078Z,5.02
2019-02-27T03:37:38.593Z,4.91
2019-02-27T03:38:44.091Z,4.94
2019-02-27T03:39:49.596Z,4.96
2019-02-27T03:40:55.107Z,4.96
2019-02-27T03:42:00.613Z,4.98
2019-02-27T03:43:10.204Z,5.02
2019-02-27T03:44:11.624Z,4.91
2019-02-27T03:45:17.132Z,5.02
2019-02-27T03:46:22.636Z,4.94
2019-02-27T03:47:28.139Z,4.92
2019-02-27T03:48:33.648Z,4.92
2019-02-27T03:49:40.778Z,4.91
2019-02-27T03:50:49.562Z,4.91
2019-02-27T03:51:50.169Z,4.86
2019-02-27T03:52:55.679Z,4.84
2019-02-27T03:54:01.180Z,4.89
2019-02-27T03:55:06.695Z,4.88
2019-02-27T03:56:12.200Z,4.89
2019-02-27T03:57:20.169Z,4.79
2019-02-27T03:58:26.751Z,4.86
2019-02-27T03:59:28.712Z,4.88
2019-02-27T04:00:34.230Z,4.88
2019-02-27T04:01:39.728Z,4.84
2019-02-27T04:02:45.235Z,4.89
2019-02-27T04:03:54.191Z,4.88
2019-02-27T04:04:56.240Z,4.92
2019-02-27T04:06:01.753Z,4.94
2019-02-27T04:07:07.258Z,4.84
2019-02-27T04:08:12.761Z,4.86
2019-02-27T04:09:19.838Z,4.80
2019-02-27T04:10:23.773Z,4.84
2019-02-27T04:11:29.283Z,4.80
2019-02-27T04:12:34.792Z,4.94
2019-02-27T04:13:40.295Z,4.88
2019-02-27T04:14:45.817Z,4.91
2019-02-27T04:15:53.641Z,4.86
2019-02-27T04:16:56.816Z,4.76
2019-02-27T04:18:02.338Z,4.75
2019-02-27T04:19:07.836Z,4.77
2019-02-27T04:20:15.551Z,4.80
2019-02-27T04:21:25.096Z,4.86
2019-02-27T04:22:24.346Z,4.75
2019-02-27T04:23:29.857Z,4.80
2019-02-27T04:24:35.368Z,4.75
2019-02-27T04:25:40.869Z,4.77
2019-02-27T04:26:46.370Z,4.79
2019-02-27T04:27:55.190Z,4.76
2019-02-27T04:28:57.388Z,4.75
2019-02-27T04:30:02.887Z,4.73
2019-02-27T04:31:08.398Z,4.88
2019-02-27T04:32:13.902Z,4.77
2019-02-27T04:33:23.429Z,4.76
2019-02-27T04:34:24.914Z,4.76
2019-02-27T04:35:30.422Z,4.80
2019-02-27T04:36:35.931Z,4.80
2019-02-27T04:37:41.435Z,4.79
2019-02-27T04:38:46.938Z,4.73
2019-02-27T04:39:52.447Z,4.77
2019-02-27T04:40:57.954Z,4.75
2019-02-27T04:42:03.457Z,4.80
2019-02-27T04:43:08.970Z,4.76
2019-02-27T04:44:14.474Z,4.77
2019-02-27T04:45:19.980Z,4.80
2019-02-27T04:46:25.485Z,4.73
2019-02-27T04:47:31.000Z,4.70
2019-02-27T04:48:36.497Z,4.79
2019-02-27T04:49:42.001Z,4.72
2019-02-27T04:50:47.507Z,4.65
2019-02-27T04:51:53.021Z,4.69
2019-02-27T04:52:58.667Z,4.69
2019-02-27T04:54:06.348Z,4.69
2019-02-27T04:55:09.535Z,4.76
2019-02-27T04:56:15.047Z,4.75
2019-02-27T04:57:20.548Z,4.73
2019-02-27T04:58:26.055Z,4.88
2019-02-27T04:59:31.558Z,4.84
2019-02-27T05:00:37.068Z,4.84
2019-02-27T05:01:42.613Z,4.91
2019-02-27T05:02:50.464Z,4.92
2019-02-27T05:03:53.584Z,4.88
2019-02-27T05:04:59.092Z,4.76
2019-02-27T05:06:04.605Z,4.80
2019-02-27T05:07:10.101Z,4.75
2019-02-27T05:08:15.612Z,4.69
2019-02-27T05:09:21.119Z,4.59
2019-02-27T05:10:26.622Z,4.67
2019-02-27T05:11:32.129Z,4.62
2019-02-27T05:12:37.637Z,4.51
2019-02-27T05:13:43.143Z,4.58
2019-02-27T05:14:48.646Z,4.47
2019-02-27T05:15:54.153Z,4.50
2019-02-27T05:16:59.765Z,4.51
2019-02-27T05:18:05.167Z,4.46
2019-02-27T05:19:10.671Z,4.50
2019-02-27T05:20:16.179Z,4.37
2019-02-27T05:21:21.683Z,4.42
2019-02-27T05:22:27.341Z,4.37
2019-02-27T05:23:33.596Z,4.39
2019-02-27T05:24:40.614Z,4.34
2019-02-27T05:25:43.709Z,4.33
2019-02-27T05:26:49.220Z,4.40
2019-02-27T05:27:54.719Z,4.34
2019-02-27T05:29:00.230Z,4.42
2019-02-27T05:30:05.740Z,4.34
2019-02-27T05:31:11.237Z,4.33
2019-02-27T05:32:18.232Z,4.33
2019-02-27T05:33:22.252Z,4.29
2019-02-27T05:34:27.766Z,4.26
2019-02-27T05:35:33.262Z,4.26
2019-02-27T05:36:38.772Z,4.26
2019-02-27T05:37:44.276Z,4.28
2019-02-27T05:38:49.782Z,4.12
2019-02-27T05:39:55.307Z,4.21
2019-02-27T05:41:00.792Z,4.24
2019-02-27T05:42:06.971Z,4.26
2019-02-27T05:43:13.866Z,4.32
2019-02-27T05:44:21.346Z,4.26
2019-02-27T05:45:22.816Z,4.33
2019-02-27T05:46:28.332Z,4.37
2019-02-27T05:47:33.829Z,4.36
2019-02-27T05:48:39.341Z,4.42
2019-02-27T05:49:44.841Z,4.39
2019-02-27T05:50:50.359Z,4.39
2019-02-27T05:51:55.863Z,4.40
2019-02-27T05:53:01.365Z,4.44
2019-02-27T05:54:06.866Z,4.47
2019-02-27T05:55:12.374Z,4.42
2019-02-27T05:56:17.878Z,4.47
2019-02-27T05:57:23.877Z,4.46
2019-02-27T05:58:28.892Z,4.50
2019-02-27T05:59:34.395Z,4.47
2019-02-27T06:00:39.899Z,4.50
2019-02-27T06:01:45.412Z,4.47
2019-02-27T06:02:50.916Z,4.43
2019-02-27T06:03:56.425Z,4.52
2019-02-27T06:05:01.931Z,4.46
2019-02-27T06:06:11.537Z,4.44
2019-02-27T06:07:12.941Z,4.54
2019-02-27T06:08:18.446Z,4.52
2019-02-27T06:09:23.953Z,4.59
2019-02-27T06:10:29.458Z,4.54
2019-02-27T06:11:34.964Z,4.61
2019-02-27T06:12:40.966Z,4.52
2019-02-27T06:13:47.587Z,4.64
2019-02-27T06:14:54.838Z,4.54
2019-02-27T06:15:56.988Z,4.52
2019-02-27T06:17:02.508Z,4.59
2019-02-27T06:18:07.998Z,4.47
2019-02-27T06:19:13.504Z,4.46
2019-02-27T06:20:19.009Z,4.43
2019-02-27T06:21:24.517Z,4.42
2019-02-27T06:22:30.403Z,4.32
2019-02-27T06:23:37.830Z,4.28
2019-02-27T06:24:43.160Z,4.25
2019-02-27T06:25:46.543Z,4.21
2019-02-27T06:26:52.051Z,4.14
2019-02-27T06:27:57.556Z,4.18
2019-02-27T06:29:03.061Z,4.15
2019-02-27T06:30:08.563Z,4.08
2019-02-27T06:31:14.072Z,4.12
2019-02-27T06:32:19.577Z,4.07
2019-02-27T06:33:25.084Z,4.07
2019-02-27T06:34:30.589Z,4.07
2019-02-27T06:35:36.106Z,4.12
2019-02-27T06:36:42.895Z,4.26
2019-02-27T06:37:50.401Z,4.15
2019-02-27T06:38:52.614Z,4.21
2019-02-27T06:39:58.118Z,4.24
2019-02-27T06:41:03.625Z,4.12
2019-02-27T06:42:09.145Z,4.32
2019-02-27T06:43:14.636Z,4.28
2019-02-27T06:44:20.140Z,4.26
2019-02-27T06:45:25.647Z,4.24
2019-02-27T06:46:31.154Z,4.25
2019-02-27T06:47:36.668Z,4.29
2019-02-27T06:48:43.543Z,4.28
2019-02-27T06:49:49.004Z,4.40
2019-02-27T06:50:53.178Z,4.37
2019-02-27T06:51:58.684Z,4.40
2019-02-27T06:53:04.195Z,4.34
2019-02-27T06:54:09.694Z,4.44
2019-02-27T06:55:15.206Z,4.46
2019-02-27T06:56:20.707Z,4.46
2019-02-27T06:57:26.829Z,4.51
2019-02-27T06:58:31.720Z,4.51
2019-02-27T06:59:37.224Z,4.52
2019-02-27T07:00:42.733Z,4.57
2019-02-27T07:01:48.235Z,4.61
2019-02-27T07:02:55.602Z,4.47
2019-02-27T07:03:59.251Z,4.51
2019-02-27T07:05:04.760Z,4.46
2019-02-27T07:06:10.267Z,4.51
2019-02-27T07:07:15.770Z,4.58
2019-02-27T07:08:21.274Z,4.50
2019-02-27T07:09:26.794Z,4.52
2019-02-27T07:10:32.285Z,4.55
2019-02-27T07:11:37.795Z,4.47
2019-02-27T07:12:43.308Z,4.61
2019-02-27T07:13:48.807Z,4.61
2019-02-27T07:14:54.308Z,4.59
2019-02-27T07:15:59.813Z,4.65
2019-02-27T07:17:05.323Z,4.69
2019-02-27T07:18:11.959Z,4.80
2019-02-27T07:19:16.436Z,4.83
2019-02-27T07:20:24.586Z,4.76
2019-02-27T07:21:32.432Z,4.89
2019-02-27T07:22:32.856Z,4.91
2019-02-27T07:23:38.358Z,4.94
2019-02-27T07:24:43.864Z,4.94
2019-02-27T07:25:49.368Z,4.99
2019-02-27T07:26:54.871Z,5.09
2019-02-27T07:28:00.379Z,5.07
2019-02-27T07:29:05.888Z,5.09
2019-02-27T07:30:11.394Z,5.13
2019-02-27T07:31:18.266Z,5.09
2019-02-27T07:32:22.414Z,5.14
2019-02-27T07:33:27.909Z,5.23
2019-02-27T07:34:33.419Z,5.28
2019-02-27T07:35:38.923Z,5.35
2019-02-27T07:36:44.444Z,5.31
2019-02-27T07:37:49.940Z,5.38
2019-02-27T07:38:57.486Z,5.38
2019-02-27T07:40:00.950Z,5.48
2019-02-27T07:41:06.469Z,5.53
2019-02-27T07:42:11.959Z,5.68
2019-02-27T07:43:17.469Z,5.63
2019-02-27T07:44:22.978Z,5.74
2019-02-27T07:45:28.482Z,5.75
2019-02-27T07:46:35.482Z,5.75
2019-02-27T07:47:39.502Z,5.85
2019-02-27T07:48:45.007Z,5.91
2019-02-27T07:49:50.514Z,5.85
2019-02-27T07:50:56.017Z,6.13
2019-02-27T07:52:01.523Z,6.07
2019-02-27T07:53:07.026Z,6.09
2019-02-27T07:54:12.537Z,6.14
2019-02-27T07:55:22.081Z,6.21
2019-02-27T07:56:23.552Z,6.36
2019-02-27T07:57:29.059Z,6.43
2019-02-27T07:58:34.662Z,6.46
2019-02-27T07:59:40.070Z,6.48
2019-02-27T08:00:47.130Z,6.54
2019-02-27T08:01:51.089Z,6.56
2019-02-27T08:02:56.592Z,6.62
2019-02-27T08:04:02.098Z,6.66
2019-02-27T08:05:07.609Z,6.68
2019-02-27T08:06:13.114Z,6.86
2019-02-27T08:07:18.621Z,6.86
2019-02-27T08:08:24.377Z,6.90
2019-02-27T08:09:30.233Z,7.12
2019-02-27T08:10:36.891Z,7.09
2019-02-27T08:11:40.653Z,7.13
2019-02-27T08:12:46.158Z,7.19
2019-02-27T08:13:51.664Z,7.23
2019-02-27T08:14:57.169Z,7.31
2019-02-27T08:16:02.685Z,7.44
2019-02-27T08:17:17.274Z,7.55
2019-02-27T08:18:13.725Z,7.60
2019-02-27T08:19:19.209Z,7.69
2019-02-27T08:20:24.709Z,7.74
2019-02-27T08:21:30.219Z,7.84
2019-02-27T08:22:35.728Z,7.87
2019-02-27T08:23:41.236Z,8.00
2019-02-27T08:24:46.740Z,8.00
2019-02-27T08:25:52.249Z,8.15
2019-02-27T08:26:57.757Z,8.21
2019-02-27T08:28:03.266Z,8.25
2019-02-27T08:29:08.774Z,8.44
2019-02-27T08:30:14.283Z,8.53
2019-02-27T08:31:19.800Z,8.54
2019-02-27T08:32:25.299Z,8.68
2019-02-27T08:33:30.807Z,8.76
2019-02-27T08:34:36.316Z,8.96
2019-02-27T08:35:41.828Z,8.93
2019-02-27T08:36:47.339Z,9.05
2019-02-27T08:38:01.880Z,9.20
2019-02-27T08:38:58.343Z,9.32
2019-02-27T08:40:03.860Z,9.38
2019-02-27T08:41:09.369Z,9.56
2019-02-27T08:42:15.782Z,9.58
2019-02-27T08:43:20.385Z,9.61
2019-02-27T08:44:25.891Z,9.67
2019-02-27T08:45:31.406Z,9.81
2019-02-27T08:46:37.631Z,10.04
2019-02-27T08:47:43.467Z,10.15
2019-02-27T08:48:50.099Z,10.07
2019-02-27T08:49:57.588Z,10.22
2019-02-27T08:50:58.944Z,10.40
2019-02-27T08:52:04.455Z,10.47
2019-02-27T08:53:09.965Z,10.51
2019-02-27T08:54:15.474Z,10.56
2019-02-27T08:55:22.676Z,10.77
2019-02-27T08:56:26.493Z,10.84
2019-02-27T08:57:32.006Z,10.89
2019-02-27T08:58:37.514Z,10.99
2019-02-27T08:59:43.022Z,11.14
2019-02-27T09:00:48.536Z,11.07
2019-02-27T09:01:56.311Z,11.27
2019-02-27T09:03:02.523Z,11.35
2019-02-27T09:04:06.176Z,11.38
2019-02-27T09:05:10.574Z,11.50
2019-02-27T09:06:18.541Z,11.54
2019-02-27T09:07:21.595Z,11.68
2019-02-27T09:08:27.111Z,11.70
2019-02-27T09:09:32.623Z,11.83
2019-02-27T09:10:38.132Z,11.89
2019-02-27T09:11:43.641Z,11.90
2019-02-27T09:12:51.069Z,12.04
2019-02-27T09:13:54.664Z,12.12
2019-02-27T09:15:00.361Z,12.16
2019-02-27T09:16:05.679Z,12.30
2019-02-27T09:17:11.192Z,12.27
2019-02-27T09:18:16.696Z,12.44
2019-02-27T09:19:22.216Z,12.41
2019-02-27T09:20:27.731Z,12.60
2019-02-27T09:21:33.233Z,12.63
2019-02-27T09:22:38.740Z,12.75
2019-02-27T09:23:44.255Z,12.74
2019-02-27T09:24:49.763Z,12.81
2019-02-27T09:25:57.340Z,12.89
2019-02-27T09:27:00.790Z,12.95
2019-02-27T09:28:09.046Z,12.95
2019-02-27T09:29:11.822Z,13.09
2019-02-27T09:30:17.318Z,13.14
2019-02-27T09:31:22.829Z,13.29
2019-02-27T09:32:28.344Z,13.32
2019-02-27T09:33:38.722Z,13.29
2019-02-27T09:34:39.361Z,13.41
2019-02-27T09:35:44.877Z,13.44
2019-02-27T09:36:50.388Z,13.59
2019-02-27T09:37:55.897Z,13.63
2019-02-27T09:39:01.415Z,13.71
2019-02-27T09:40:06.922Z,13.77
2019-02-27T09:41:13.044Z,13.92
2019-02-27T09:42:19.155Z,14.01
2019-02-27T09:43:24.188Z,14.12
2019-02-27T09:44:28.967Z,14.16
2019-02-27T09:45:35.141Z,14.27
2019-02-27T09:46:39.992Z,14.34
2019-02-27T09:47:45.511Z,14.38
2019-02-27T09:48:51.015Z,14.47
2019-02-27T09:49:56.532Z,14.56
2019-02-27T09:51:02.041Z,14.57
2019-02-27T09:52:07.557Z,14.60
2019-02-27T09:53:13.063Z,14.78
2019-02-27T09:54:18.575Z,14.84
2019-02-27T09:55:24.096Z,14.84
2019-02-27T09:56:29.841Z,14.95
2019-02-27T09:57:35.315Z,15.01
2019-02-27T09:58:45.258Z,15.03
2019-02-27T09:59:46.137Z,15.13
2019-02-27T10:00:51.661Z,15.19
2019-02-27T10:01:57.395Z,15.23
2019-02-27T10:03:02.681Z,15.27
2019-02-27T10:04:09.617Z,15.33
2019-02-27T10:05:13.701Z,15.43
2019-02-27T10:06:19.225Z,15.48
2019-02-27T10:07:24.735Z,15.54
2019-02-27T10:08:30.244Z,15.68
2019-02-27T10:09:35.772Z,15.76
2019-02-27T10:10:44.968Z,15.75
2019-02-27T10:11:46.782Z,15.82
2019-02-27T10:12:52.292Z,15.81
2019-02-27T10:13:57.802Z,16.00
2019-02-27T10:15:03.315Z,15.99
2019-02-27T10:16:08.829Z,16.15
2019-02-27T10:17:14.344Z,16.12
2019-02-27T10:18:21.996Z,16.16
2019-02-27T10:19:26.884Z,16.31
2019-02-27T10:20:30.882Z,16.33
2019-02-27T10:21:36.401Z,16.38
2019-02-27T10:22:41.907Z,16.48
2019-02-27T10:23:47.428Z,16.52
2019-02-27T10:24:52.935Z,16.73
2019-02-27T10:25:58.449Z,16.68
2019-02-27T10:27:03.962Z,16.77
2019-02-27T10:28:10.721Z,16.83
2019-02-27T10:29:14.996Z,16.85
2019-02-27T10:30:20.505Z,16.83
2019-02-27T10:31:26.948Z,16.89
2019-02-27T10:32:31.718Z,16.92
2019-02-27T10:33:37.047Z,16.95
2019-02-27T10:34:42.559Z,17.03
2019-02-27T10:35:48.074Z,17.15
2019-02-27T10:36:53.616Z,17.18
2019-02-27T10:37:59.120Z,17.25
2019-02-27T10:39:04.614Z,17.28
2019-02-27T10:40:11.458Z,17.36
2019-02-27T10:41:15.635Z,17.40
2019-02-27T10:42:21.156Z,17.44
2019-02-27T10:43:26.670Z,17.64
2019-02-27T10:44:33.968Z,17.71
2019-02-27T10:45:37.698Z,17.70
2019-02-27T10:46:43.208Z,17.89
2019-02-27T10:47:48.731Z,17.88
2019-02-27T10:48:54.238Z,18.00
2019-02-27T10:50:02.123Z,17.85
2019-02-27T10:51:05.270Z,18.04
2019-02-27T10:52:10.784Z,18.09
2019-02-27T10:53:16.292Z,17.99
2019-02-27T10:54:21.812Z,18.13
2019-02-27T10:55:27.331Z,18.15
2019-02-27T10:56:32.847Z,18.25
2019-02-27T10:57:38.623Z,18.24
2019-02-27T10:58:45.005Z,18.33
2019-02-27T10:59:49.384Z,18.40
2019-02-27T11:00:54.897Z,18.46
2019-02-27T11:02:00.416Z,18.52
2019-02-27T11:03:05.931Z,18.54
2019-02-27T11:04:11.449Z,18.68
2019-02-27T11:05:17.798Z,18.68
2019-02-27T11:06:22.472Z,18.76
2019-02-27T11:07:27.994Z,18.94
2019-02-27T11:08:33.503Z,18.95
2019-02-27T11:09:41.213Z,18.97
2019-02-27T11:10:44.539Z,19.06
2019-02-27T11:11:53.762Z,19.10
2019-02-27T11:12:55.559Z,19.13
2019-02-27T11:14:01.077Z,19.24
2019-02-27T11:15:08.120Z,19.25
2019-02-27T11:16:12.108Z,19.25
2019-02-27T11:17:17.622Z,19.35
2019-02-27T11:18:23.141Z,19.40
2019-02-27T11:19:28.650Z,19.47
2019-02-27T11:20:34.168Z,19.46
2019-02-27T11:21:39.679Z,19.55
2019-02-27T11:22:45.194Z,19.65
2019-02-27T11:23:50.720Z,19.68
2019-02-27T11:24:56.231Z,19.70
2019-02-27T11:26:01.743Z,19.66
2019-02-27T11:27:07.256Z,19.73
2019-02-27T11:28:12.775Z,19.83
2019-02-27T11:29:18.293Z,19.80
2019-02-27T11:30:23.805Z,19.80
2019-02-27T11:31:29.320Z,19.86
2019-02-27T11:32:34.846Z,19.79
2019-02-27T11:33:40.357Z,19.86
2019-02-27T11:34:48.496Z,19.93
2019-02-27T11:35:51.385Z,19.90
2019-02-27T11:36:56.900Z,19.88
2019-02-27T11:38:02.421Z,19.94
2019-02-27T11:39:07.930Z,19.98
2019-02-27T11:40:13.445Z,19.94
2019-02-27T11:41:18.964Z,19.98
2019-02-27T11:42:24.479Z,20.00
2019-02-27T11:43:29.999Z,19.98
2019-02-27T11:44:35.520Z,20.06
2019-02-27T11:45:41.028Z,20.15
2019-02-27T11:46:46.554Z,20.12
2019-02-27T11:47:52.056Z,20.21
2019-02-27T11:48:59.968Z,20.23
2019-02-27T11:50:03.094Z,20.33
2019-02-27T11:51:08.602Z,20.34
2019-02-27T11:52:14.134Z,20.46
2019-02-27T11:53:19.642Z,20.50
2019-02-27T11:54:25.158Z,20.50
2019-02-27T11:55:30.675Z,20.61
2019-02-27T11:56:36.185Z,20.65
2019-02-27T11:57:43.246Z,20.64
2019-02-27T11:58:47.216Z,20.71
2019-02-27T11:59:52.746Z,20.79
2019-02-27T12:00:58.252Z,20.79
2019-02-27T12:02:03.775Z,20.80
2019-02-27T12:03:11.073Z,20.91
2019-02-27T12:04:19.300Z,20.89
2019-02-27T12:05:20.319Z,20.91
2019-02-27T12:06:25.835Z,20.96
2019-02-27T12:07:31.350Z,21.02
2019-02-27T12:08:36.866Z,21.08
2019-02-27T12:09:42.390Z,21.05
2019-02-27T12:10:47.899Z,21.04
2019-02-27T12:11:53.414Z,21.13
2019-02-27T12:13:00.859Z,21.14
2019-02-27T12:14:06.584Z,21.21
2019-02-27T12:15:09.962Z,21.21
2019-02-27T12:16:18.316Z,21.27
2019-02-27T12:17:23.275Z,21.39
2019-02-27T12:18:26.515Z,21.38
2019-02-27T12:19:32.027Z,21.50
2019-02-27T12:20:37.546Z,21.50
2019-02-27T12:21:43.071Z,21.59
2019-02-27T12:22:48.599Z,21.57
2019-02-27T12:23:54.097Z,21.71
2019-02-27T12:24:59.612Z,21.88
2019-02-27T12:26:05.137Z,22.02
2019-02-27T12:27:24.353Z,22.16
2019-02-27T12:28:18.268Z,22.31
2019-02-27T12:29:24.101Z,22.49
2019-02-27T12:30:27.197Z,22.60
2019-02-27T12:31:32.714Z,22.80
2019-02-27T12:32:38.228Z,23.09
2019-02-27T12:33:43.763Z,23.31
2019-02-27T12:34:49.284Z,23.77
2019-02-27T12:35:54.790Z,24.57
2019-02-27T12:37:00.304Z,25.59
2019-02-27T12:38:08.155Z,26.76
2019-02-27T12:39:15.254Z,27.58
2019-02-27T12:40:16.850Z,28.03
2019-02-27T12:41:22.376Z,28.60
2019-02-27T12:42:36.789Z,29.19
2019-02-27T12:43:33.404Z,29.79
2019-02-27T12:44:38.930Z,30.43
2019-02-27T12:45:44.439Z,31.04
2019-02-27T12:46:49.966Z,31.61
2019-02-27T12:47:55.500Z,32.07
2019-02-27T12:49:00.994Z,32.67
2019-02-27T12:50:06.520Z,33.17
2019-02-27T12:51:12.034Z,33.57
2019-02-27T12:52:17.553Z,33.94
2019-02-27T12:53:23.075Z,34.36
2019-02-27T12:54:28.606Z,34.77
2019-02-27T12:55:36.261Z,35.18
2019-02-27T12:56:43.310Z,35.50
2019-02-27T12:57:45.173Z,35.86
2019-02-27T12:58:50.686Z,35.11
2019-02-27T12:59:56.210Z,34.20
2019-02-27T13:01:01.746Z,33.53
2019-02-27T13:02:08.547Z,32.96
2019-02-27T13:03:12.784Z,32.35
2019-02-27T13:04:19.887Z,32.02
2019-02-27T13:05:26.474Z,31.67
2019-02-27T13:06:29.353Z,31.40
2019-02-27T13:07:34.883Z,31.13
2019-02-27T13:08:40.403Z,30.74
2019-02-27T13:09:45.936Z,30.38
2019-02-27T13:10:51.452Z,30.08
2019-02-27T13:11:56.988Z,29.94
2019-02-27T13:13:02.499Z,29.65
2019-02-27T13:14:08.020Z,29.47
2019-02-27T13:15:13.538Z,29.26
2019-02-27T13:16:19.066Z,29.07
2019-02-27T13:17:24.590Z,28.93
2019-02-27T13:18:32.059Z,28.84
2019-02-27T13:19:38.511Z,28.62
2019-02-27T13:20:43.028Z,28.56
2019-02-27T13:21:46.677Z,28.46
2019-02-27T13:22:52.191Z,28.23
2019-02-27T13:23:57.711Z,28.16
2019-02-27T13:25:03.233Z,28.10
2019-02-27T13:26:08.753Z,28.07
2019-02-27T13:27:14.278Z,27.94
2019-02-27T13:28:19.796Z,28.01
2019-02-27T13:29:25.335Z,27.96
2019-02-27T13:30:30.835Z,27.92
2019-02-27T13:31:36.361Z,27.94
2019-02-27T13:32:41.891Z,27.84
2019-02-27T13:33:47.406Z,27.85
2019-02-27T13:34:52.918Z,27.70
2019-02-27T13:35:59.641Z,27.71
2019-02-27T13:37:03.966Z,27.59
2019-02-27T13:38:09.492Z,27.57
2019-02-27T13:39:15.004Z,27.42
2019-02-27T13:40:20.526Z,27.36
2019-02-27T13:41:26.047Z,27.33
2019-02-27T13:42:31.578Z,27.36
2019-02-27T13:43:37.101Z,27.29
2019-02-27T13:44:42.616Z,27.39
2019-02-27T13:45:48.227Z,27.46
2019-02-27T13:46:54.473Z,27.46
2019-02-27T13:47:59.249Z,27.43
2019-02-27T13:49:04.691Z,27.51
2019-02-27T13:50:10.217Z,27.59
2019-02-27T13:51:15.732Z,27.61
2019-02-27T13:52:21.255Z,27.57
2019-02-27T13:53:26.887Z,27.64
2019-02-27T13:54:35.076Z,27.73
2019-02-27T13:55:37.823Z,27.82
2019-02-27T13:56:43.337Z,27.84
2019-02-27T13:57:48.864Z,27.94
2019-02-27T13:58:54.381Z,27.86
2019-02-27T13:59:59.894Z,27.96
2019-02-27T14:01:05.422Z,27.96
2019-02-27T14:02:11.489Z,28.16
2019-02-27T14:03:16.461Z,30.19
2019-02-27T14:04:22.754Z,32.20
2019-02-27T14:05:29.436Z,33.95
2019-02-27T14:06:33.026Z,35.86
2019-02-27T14:07:38.555Z,37.55
2019-02-27T14:08:44.069Z,38.90
2019-02-27T14:09:49.592Z,40.10
2019-02-27T14:10:55.116Z,41.05
2019-02-27T14:12:00.651Z,41.65
2019-02-27T14:13:09.139Z,42.41
2019-02-27T14:14:11.689Z,43.11
2019-02-27T14:15:17.213Z,43.76
2019-02-27T14:16:22.773Z,44.50
2019-02-27T14:17:28.267Z,45.00
2019-02-27T14:18:33.795Z,45.32
2019-02-27T14:19:39.323Z,45.73
2019-02-27T14:20:44.850Z,46.25
2019-02-27T14:21:50.365Z,46.61